sensor_id;sensor_type;location;lat;lon;timestamp;P1;durP1;ratioP1;P2;durP2;ratioP2
45114;SDS011;30877;43.706;10.780;2023-07-29T00:00:10;3.50;;;1.80;;
45114;SDS011;30877;43.706;10.780;2023-07-29T00:02:40;4.28;;;2.00;;
45114;SDS011;30877;43.706;10.780;2023-07-29T00:05:08;6.55;;;2.20;;
45114;SDS011;30877;43.706;10.780;2023-07-29T00:07:36;6.57;;;2.15;;
45114;SDS011;30877;43.706;10.780;2023-07-29T00:10:06;4.07;;;1.90;;
45114;SDS011;30877;43.706;10.780;2023-07-29T00:12:35;5.32;;;2.10;;
45114;SDS011;30877;43.706;10.780;2023-07-29T00:15:03;3.80;;;2.20;;
45114;SDS011;30877;43.706;10.780;2023-07-29T00:17:32;3.90;;;2.13;;
45114;SDS011;30877;43.706;10.780;2023-07-29T00:20:00;6.43;;;2.03;;
45114;SDS011;30877;43.706;10.780;2023-07-29T00:22:28;6.97;;;2.42;;
45114;SDS011;30877;43.706;10.780;2023-07-29T00:24:59;7.97;;;2.55;;
45114;SDS011;30877;43.706;10.780;2023-07-29T00:27:33;4.47;;;2.20;;
45114;SDS011;30877;43.706;10.780;2023-07-29T00:30:01;4.80;;;2.28;;
45114;SDS011;30877;43.706;10.780;2023-07-29T00:32:30;5.43;;;2.28;;
45114;SDS011;30877;43.706;10.780;2023-07-29T00:34:58;3.20;;;1.85;;
45114;SDS011;30877;43.706;10.780;2023-07-29T00:37:29;5.07;;;2.33;;
45114;SDS011;30877;43.706;10.780;2023-07-29T00:39:58;3.83;;;2.08;;
45114;SDS011;30877;43.706;10.780;2023-07-29T00:42:26;5.75;;;2.00;;
45114;SDS011;30877;43.706;10.780;2023-07-29T00:44:55;4.05;;;2.17;;
45114;SDS011;30877;43.706;10.780;2023-07-29T00:47:25;4.10;;;2.00;;
45114;SDS011;30877;43.706;10.780;2023-07-29T00:49:53;4.18;;;2.03;;
45114;SDS011;30877;43.706;10.780;2023-07-29T00:52:21;4.95;;;2.08;;
45114;SDS011;30877;43.706;10.780;2023-07-29T00:54:50;5.50;;;2.08;;
45114;SDS011;30877;43.706;10.780;2023-07-29T00:57:19;4.55;;;2.08;;
45114;SDS011;30877;43.706;10.780;2023-07-29T00:59:47;4.18;;;1.90;;
45114;SDS011;30877;43.706;10.780;2023-07-29T01:02:17;4.00;;;2.05;;
45114;SDS011;30877;43.706;10.780;2023-07-29T01:04:45;5.60;;;2.20;;
45114;SDS011;30877;43.706;10.780;2023-07-29T01:07:19;3.25;;;1.77;;
45114;SDS011;30877;43.706;10.780;2023-07-29T01:09:55;3.42;;;1.85;;
45114;SDS011;30877;43.706;10.780;2023-07-29T01:12:30;4.75;;;2.20;;
45114;SDS011;30877;43.706;10.780;2023-07-29T01:15:08;4.78;;;2.05;;
45114;SDS011;30877;43.706;10.780;2023-07-29T01:17:42;3.20;;;1.80;;
45114;SDS011;30877;43.706;10.780;2023-07-29T01:20:14;3.58;;;2.17;;
45114;SDS011;30877;43.706;10.780;2023-07-29T01:22:44;4.78;;;1.83;;
45114;SDS011;30877;43.706;10.780;2023-07-29T01:25:13;4.63;;;2.10;;
45114;SDS011;30877;43.706;10.780;2023-07-29T01:27:42;5.35;;;2.50;;
45114;SDS011;30877;43.706;10.780;2023-07-29T01:30:10;4.85;;;1.98;;
45114;SDS011;30877;43.706;10.780;2023-07-29T01:32:43;4.53;;;1.98;;
45114;SDS011;30877;43.706;10.780;2023-07-29T01:35:18;3.53;;;1.95;;
45114;SDS011;30877;43.706;10.780;2023-07-29T01:37:52;6.60;;;1.83;;
45114;SDS011;30877;43.706;10.780;2023-07-29T01:40:25;5.43;;;2.50;;
45114;SDS011;30877;43.706;10.780;2023-07-29T01:42:55;6.07;;;2.55;;
45114;SDS011;30877;43.706;10.780;2023-07-29T01:45:24;3.85;;;2.10;;
45114;SDS011;30877;43.706;10.780;2023-07-29T01:47:55;4.65;;;1.85;;
45114;SDS011;30877;43.706;10.780;2023-07-29T01:50:23;4.45;;;2.10;;
45114;SDS011;30877;43.706;10.780;2023-07-29T01:52:51;4.68;;;2.20;;
45114;SDS011;30877;43.706;10.780;2023-07-29T01:55:19;4.85;;;2.00;;
45114;SDS011;30877;43.706;10.780;2023-07-29T01:57:49;4.50;;;2.13;;
45114;SDS011;30877;43.706;10.780;2023-07-29T02:00:18;5.43;;;2.10;;
45114;SDS011;30877;43.706;10.780;2023-07-29T02:02:46;4.70;;;2.45;;
45114;SDS011;30877;43.706;10.780;2023-07-29T02:05:15;6.30;;;2.35;;
45114;SDS011;30877;43.706;10.780;2023-07-29T02:07:42;2.97;;;1.80;;
45114;SDS011;30877;43.706;10.780;2023-07-29T02:10:10;2.90;;;1.52;;
45114;SDS011;30877;43.706;10.780;2023-07-29T02:12:39;4.60;;;1.90;;
45114;SDS011;30877;43.706;10.780;2023-07-29T02:15:09;4.35;;;2.42;;
45114;SDS011;30877;43.706;10.780;2023-07-29T02:17:37;3.70;;;2.20;;
45114;SDS011;30877;43.706;10.780;2023-07-29T02:20:05;4.35;;;2.13;;
45114;SDS011;30877;43.706;10.780;2023-07-29T02:22:34;6.57;;;2.45;;
45114;SDS011;30877;43.706;10.780;2023-07-29T02:25:02;5.35;;;2.15;;
45114;SDS011;30877;43.706;10.780;2023-07-29T02:27:31;5.85;;;2.20;;
45114;SDS011;30877;43.706;10.780;2023-07-29T02:30:00;5.65;;;2.05;;
45114;SDS011;30877;43.706;10.780;2023-07-29T02:32:30;4.40;;;2.33;;
45114;SDS011;30877;43.706;10.780;2023-07-29T02:34:58;8.07;;;2.20;;
45114;SDS011;30877;43.706;10.780;2023-07-29T02:37:26;5.25;;;2.08;;
45114;SDS011;30877;43.706;10.780;2023-07-29T02:39:54;7.15;;;2.30;;
45114;SDS011;30877;43.706;10.780;2023-07-29T02:42:22;3.90;;;2.10;;
45114;SDS011;30877;43.706;10.780;2023-07-29T02:44:50;4.07;;;2.08;;
45114;SDS011;30877;43.706;10.780;2023-07-29T02:47:18;5.95;;;2.50;;
45114;SDS011;30877;43.706;10.780;2023-07-29T02:49:48;6.57;;;2.20;;
45114;SDS011;30877;43.706;10.780;2023-07-29T02:52:16;3.55;;;1.77;;
45114;SDS011;30877;43.706;10.780;2023-07-29T02:54:44;6.38;;;2.40;;
45114;SDS011;30877;43.706;10.780;2023-07-29T02:57:12;4.30;;;1.90;;
45114;SDS011;30877;43.706;10.780;2023-07-29T02:59:40;5.88;;;2.03;;
45114;SDS011;30877;43.706;10.780;2023-07-29T03:02:08;5.57;;;2.30;;
45114;SDS011;30877;43.706;10.780;2023-07-29T03:04:36;7.65;;;2.13;;
45114;SDS011;30877;43.706;10.780;2023-07-29T03:07:06;6.20;;;2.45;;
45114;SDS011;30877;43.706;10.780;2023-07-29T03:09:34;5.20;;;2.10;;
45114;SDS011;30877;43.706;10.780;2023-07-29T03:12:03;7.10;;;2.63;;
45114;SDS011;30877;43.706;10.780;2023-07-29T03:14:31;4.63;;;2.00;;
45114;SDS011;30877;43.706;10.780;2023-07-29T03:17:01;8.25;;;2.50;;
45114;SDS011;30877;43.706;10.780;2023-07-29T03:19:31;4.00;;;1.90;;
45114;SDS011;30877;43.706;10.780;2023-07-29T03:21:59;5.40;;;2.13;;
45114;SDS011;30877;43.706;10.780;2023-07-29T03:24:29;4.20;;;2.08;;
45114;SDS011;30877;43.706;10.780;2023-07-29T03:26:57;3.35;;;2.08;;
45114;SDS011;30877;43.706;10.780;2023-07-29T03:29:25;4.93;;;1.92;;
45114;SDS011;30877;43.706;10.780;2023-07-29T03:31:53;4.13;;;1.92;;
45114;SDS011;30877;43.706;10.780;2023-07-29T03:34:22;3.95;;;2.40;;
45114;SDS011;30877;43.706;10.780;2023-07-29T03:36:50;3.15;;;1.85;;
45114;SDS011;30877;43.706;10.780;2023-07-29T03:39:18;5.43;;;2.15;;
45114;SDS011;30877;43.706;10.780;2023-07-29T03:41:48;4.95;;;2.40;;
45114;SDS011;30877;43.706;10.780;2023-07-29T03:44:16;4.80;;;2.60;;
45114;SDS011;30877;43.706;10.780;2023-07-29T03:46:45;5.40;;;2.72;;
45114;SDS011;30877;43.706;10.780;2023-07-29T03:49:13;3.95;;;2.05;;
45114;SDS011;30877;43.706;10.780;2023-07-29T03:51:41;3.85;;;1.92;;
45114;SDS011;30877;43.706;10.780;2023-07-29T03:54:10;3.33;;;1.88;;
45114;SDS011;30877;43.706;10.780;2023-07-29T03:56:38;2.38;;;1.67;;
45114;SDS011;30877;43.706;10.780;2023-07-29T03:59:07;3.40;;;2.13;;
45114;SDS011;30877;43.706;10.780;2023-07-29T04:01:35;4.15;;;2.20;;
45114;SDS011;30877;43.706;10.780;2023-07-29T04:04:04;4.30;;;2.20;;
45114;SDS011;30877;43.706;10.780;2023-07-29T04:06:32;4.95;;;2.10;;
45114;SDS011;30877;43.706;10.780;2023-07-29T04:09:00;4.07;;;1.95;;
45114;SDS011;30877;43.706;10.780;2023-07-29T04:11:28;4.13;;;2.17;;
45114;SDS011;30877;43.706;10.780;2023-07-29T04:13:56;3.60;;;1.88;;
45114;SDS011;30877;43.706;10.780;2023-07-29T04:16:26;6.60;;;2.17;;
45114;SDS011;30877;43.706;10.780;2023-07-29T04:18:55;3.42;;;2.05;;
45114;SDS011;30877;43.706;10.780;2023-07-29T04:21:23;6.82;;;2.25;;
45114;SDS011;30877;43.706;10.780;2023-07-29T04:23:51;7.13;;;2.25;;
45114;SDS011;30877;43.706;10.780;2023-07-29T04:26:19;5.97;;;2.45;;
45114;SDS011;30877;43.706;10.780;2023-07-29T04:28:47;5.55;;;2.00;;
45114;SDS011;30877;43.706;10.780;2023-07-29T04:31:15;7.57;;;2.22;;
45114;SDS011;30877;43.706;10.780;2023-07-29T04:33:45;5.57;;;2.20;;
45114;SDS011;30877;43.706;10.780;2023-07-29T04:36:12;6.15;;;2.72;;
45114;SDS011;30877;43.706;10.780;2023-07-29T04:38:43;9.80;;;2.58;;
45114;SDS011;30877;43.706;10.780;2023-07-29T04:41:11;7.28;;;2.75;;
45114;SDS011;30877;43.706;10.780;2023-07-29T04:43:40;8.23;;;2.60;;
45114;SDS011;30877;43.706;10.780;2023-07-29T04:46:08;5.43;;;2.45;;
45114;SDS011;30877;43.706;10.780;2023-07-29T04:48:37;7.68;;;2.65;;
45114;SDS011;30877;43.706;10.780;2023-07-29T04:51:06;7.68;;;3.25;;
45114;SDS011;30877;43.706;10.780;2023-07-29T04:53:34;7.32;;;3.05;;
45114;SDS011;30877;43.706;10.780;2023-07-29T04:56:03;9.13;;;3.88;;
45114;SDS011;30877;43.706;10.780;2023-07-29T04:58:31;10.00;;;5.55;;
45114;SDS011;30877;43.706;10.780;2023-07-29T05:01:02;8.15;;;4.28;;
45114;SDS011;30877;43.706;10.780;2023-07-29T05:03:30;7.90;;;3.20;;
45114;SDS011;30877;43.706;10.780;2023-07-29T05:05:58;5.78;;;3.17;;
45114;SDS011;30877;43.706;10.780;2023-07-29T05:08:29;5.18;;;2.53;;
45114;SDS011;30877;43.706;10.780;2023-07-29T05:10:57;5.80;;;2.63;;
45114;SDS011;30877;43.706;10.780;2023-07-29T05:13:27;5.55;;;2.58;;
45114;SDS011;30877;43.706;10.780;2023-07-29T05:15:55;4.72;;;2.60;;
45114;SDS011;30877;43.706;10.780;2023-07-29T05:18:23;8.88;;;2.83;;
45114;SDS011;30877;43.706;10.780;2023-07-29T05:20:52;4.93;;;2.30;;
45114;SDS011;30877;43.706;10.780;2023-07-29T05:23:20;5.38;;;2.53;;
45114;SDS011;30877;43.706;10.780;2023-07-29T05:25:49;6.72;;;2.60;;
45114;SDS011;30877;43.706;10.780;2023-07-29T05:28:17;3.63;;;2.50;;
45114;SDS011;30877;43.706;10.780;2023-07-29T05:30:45;3.85;;;2.60;;
45114;SDS011;30877;43.706;10.780;2023-07-29T05:33:13;3.72;;;2.45;;
45114;SDS011;30877;43.706;10.780;2023-07-29T05:35:42;6.32;;;3.10;;
45114;SDS011;30877;43.706;10.780;2023-07-29T05:38:10;5.05;;;2.60;;
45114;SDS011;30877;43.706;10.780;2023-07-29T05:40:38;3.90;;;2.40;;
45114;SDS011;30877;43.706;10.780;2023-07-29T05:43:07;4.28;;;2.47;;
45114;SDS011;30877;43.706;10.780;2023-07-29T05:45:35;8.68;;;3.17;;
45114;SDS011;30877;43.706;10.780;2023-07-29T05:48:04;4.43;;;2.20;;
45114;SDS011;30877;43.706;10.780;2023-07-29T05:50:32;8.48;;;2.55;;
45114;SDS011;30877;43.706;10.780;2023-07-29T05:53:00;5.53;;;2.85;;
45114;SDS011;30877;43.706;10.780;2023-07-29T05:55:28;4.68;;;2.42;;
45114;SDS011;30877;43.706;10.780;2023-07-29T05:57:56;8.32;;;2.97;;
45114;SDS011;30877;43.706;10.780;2023-07-29T06:00:26;4.57;;;2.00;;
45114;SDS011;30877;43.706;10.780;2023-07-29T06:02:54;5.57;;;2.60;;
45114;SDS011;30877;43.706;10.780;2023-07-29T06:05:22;7.05;;;2.47;;
45114;SDS011;30877;43.706;10.780;2023-07-29T06:07:51;9.45;;;2.65;;
45114;SDS011;30877;43.706;10.780;2023-07-29T06:10:19;4.90;;;2.63;;
45114;SDS011;30877;43.706;10.780;2023-07-29T06:12:47;4.22;;;2.40;;
45114;SDS011;30877;43.706;10.780;2023-07-29T06:15:15;6.30;;;2.65;;
45114;SDS011;30877;43.706;10.780;2023-07-29T06:17:45;6.50;;;2.75;;
45114;SDS011;30877;43.706;10.780;2023-07-29T06:20:13;5.72;;;3.05;;
45114;SDS011;30877;43.706;10.780;2023-07-29T06:22:41;5.03;;;2.72;;
45114;SDS011;30877;43.706;10.780;2023-07-29T06:25:10;5.68;;;2.38;;
45114;SDS011;30877;43.706;10.780;2023-07-29T06:27:38;6.68;;;2.47;;
45114;SDS011;30877;43.706;10.780;2023-07-29T06:30:06;4.38;;;2.53;;
45114;SDS011;30877;43.706;10.780;2023-07-29T06:32:35;6.05;;;2.38;;
45114;SDS011;30877;43.706;10.780;2023-07-29T06:35:05;3.70;;;2.10;;
45114;SDS011;30877;43.706;10.780;2023-07-29T06:37:33;4.85;;;2.42;;
45114;SDS011;30877;43.706;10.780;2023-07-29T06:40:01;3.63;;;2.33;;
45114;SDS011;30877;43.706;10.780;2023-07-29T06:42:30;5.60;;;2.40;;
45114;SDS011;30877;43.706;10.780;2023-07-29T06:44:58;6.15;;;2.58;;
45114;SDS011;30877;43.706;10.780;2023-07-29T06:47:26;7.00;;;2.50;;
45114;SDS011;30877;43.706;10.780;2023-07-29T06:49:54;4.80;;;2.20;;
45114;SDS011;30877;43.706;10.780;2023-07-29T06:52:24;4.28;;;2.28;;
45114;SDS011;30877;43.706;10.780;2023-07-29T06:54:52;4.75;;;1.90;;
45114;SDS011;30877;43.706;10.780;2023-07-29T06:57:20;5.88;;;2.15;;
45114;SDS011;30877;43.706;10.780;2023-07-29T06:59:48;4.22;;;2.10;;
45114;SDS011;30877;43.706;10.780;2023-07-29T07:02:16;5.28;;;2.00;;
45114;SDS011;30877;43.706;10.780;2023-07-29T07:04:44;3.15;;;1.90;;
45114;SDS011;30877;43.706;10.780;2023-07-29T07:07:13;6.03;;;2.33;;
45114;SDS011;30877;43.706;10.780;2023-07-29T07:09:42;6.63;;;2.08;;
45114;SDS011;30877;43.706;10.780;2023-07-29T07:12:10;3.85;;;1.80;;
45114;SDS011;30877;43.706;10.780;2023-07-29T07:14:38;3.58;;;1.92;;
45114;SDS011;30877;43.706;10.780;2023-07-29T07:17:06;4.35;;;1.80;;
45114;SDS011;30877;43.706;10.780;2023-07-29T07:19:39;4.85;;;1.77;;
45114;SDS011;30877;43.706;10.780;2023-07-29T07:22:07;3.95;;;1.70;;
45114;SDS011;30877;43.706;10.780;2023-07-29T07:24:35;5.05;;;1.88;;
45114;SDS011;30877;43.706;10.780;2023-07-29T07:27:05;8.50;;;2.40;;
45114;SDS011;30877;43.706;10.780;2023-07-29T07:29:33;4.28;;;2.10;;
45114;SDS011;30877;43.706;10.780;2023-07-29T07:32:02;6.10;;;2.00;;
45114;SDS011;30877;43.706;10.780;2023-07-29T07:34:30;10.52;;;2.10;;
45114;SDS011;30877;43.706;10.780;2023-07-29T07:37:00;4.25;;;1.98;;
45114;SDS011;30877;43.706;10.780;2023-07-29T07:39:28;3.47;;;1.92;;
45114;SDS011;30877;43.706;10.780;2023-07-29T07:41:56;4.50;;;2.08;;
45114;SDS011;30877;43.706;10.780;2023-07-29T07:44:26;4.93;;;2.10;;
45114;SDS011;30877;43.706;10.780;2023-07-29T07:46:54;4.78;;;2.10;;
45114;SDS011;30877;43.706;10.780;2023-07-29T07:49:22;5.93;;;2.05;;
45114;SDS011;30877;43.706;10.780;2023-07-29T07:51:50;7.22;;;1.67;;
45114;SDS011;30877;43.706;10.780;2023-07-29T07:54:19;7.10;;;1.92;;
45114;SDS011;30877;43.706;10.780;2023-07-29T07:56:47;4.70;;;1.83;;
45114;SDS011;30877;43.706;10.780;2023-07-29T07:59:15;5.43;;;1.80;;
45114;SDS011;30877;43.706;10.780;2023-07-29T08:01:45;5.15;;;2.00;;
45114;SDS011;30877;43.706;10.780;2023-07-29T08:04:14;5.10;;;1.60;;
45114;SDS011;30877;43.706;10.780;2023-07-29T08:06:43;2.17;;;1.58;;
45114;SDS011;30877;43.706;10.780;2023-07-29T08:09:12;4.05;;;1.67;;
45114;SDS011;30877;43.706;10.780;2023-07-29T08:11:40;3.33;;;1.80;;
45114;SDS011;30877;43.706;10.780;2023-07-29T08:14:09;3.35;;;1.50;;
45114;SDS011;30877;43.706;10.780;2023-07-29T08:16:38;1.70;;;1.40;;
45114;SDS011;30877;43.706;10.780;2023-07-29T08:19:08;3.78;;;1.60;;
45114;SDS011;30877;43.706;10.780;2023-07-29T08:21:37;3.67;;;1.60;;
45114;SDS011;30877;43.706;10.780;2023-07-29T08:24:05;5.60;;;1.90;;
45114;SDS011;30877;43.706;10.780;2023-07-29T08:26:34;5.45;;;1.88;;
45114;SDS011;30877;43.706;10.780;2023-07-29T08:29:03;3.67;;;1.60;;
45114;SDS011;30877;43.706;10.780;2023-07-29T08:31:32;3.17;;;1.85;;
45114;SDS011;30877;43.706;10.780;2023-07-29T08:34:01;4.75;;;2.10;;
45114;SDS011;30877;43.706;10.780;2023-07-29T08:36:31;7.80;;;2.00;;
45114;SDS011;30877;43.706;10.780;2023-07-29T08:39:00;5.38;;;1.65;;
45114;SDS011;30877;43.706;10.780;2023-07-29T08:41:29;5.18;;;3.08;;
45114;SDS011;30877;43.706;10.780;2023-07-29T08:44:09;4.50;;;2.03;;
45114;SDS011;30877;43.706;10.780;2023-07-29T08:46:42;4.50;;;1.83;;
45114;SDS011;30877;43.706;10.780;2023-07-29T08:49:11;5.15;;;2.33;;
45114;SDS011;30877;43.706;10.780;2023-07-29T08:51:58;7.25;;;2.03;;
45114;SDS011;30877;43.706;10.780;2023-07-29T08:54:26;4.38;;;2.05;;
45114;SDS011;30877;43.706;10.780;2023-07-29T08:56:55;5.10;;;1.65;;
45114;SDS011;30877;43.706;10.780;2023-07-29T08:59:27;6.38;;;1.95;;
45114;SDS011;30877;43.706;10.780;2023-07-29T09:01:58;4.10;;;1.90;;
45114;SDS011;30877;43.706;10.780;2023-07-29T09:04:26;5.15;;;1.98;;
45114;SDS011;30877;43.706;10.780;2023-07-29T09:06:57;4.45;;;1.83;;
45114;SDS011;30877;43.706;10.780;2023-07-29T09:09:30;3.90;;;1.90;;
45114;SDS011;30877;43.706;10.780;2023-07-29T09:11:58;5.20;;;1.98;;
45114;SDS011;30877;43.706;10.780;2023-07-29T09:14:27;3.72;;;1.70;;
45114;SDS011;30877;43.706;10.780;2023-07-29T09:16:55;4.65;;;1.92;;
45114;SDS011;30877;43.706;10.780;2023-07-29T09:19:25;4.60;;;1.50;;
45114;SDS011;30877;43.706;10.780;2023-07-29T09:21:54;2.75;;;1.83;;
45114;SDS011;30877;43.706;10.780;2023-07-29T09:24:24;4.90;;;1.92;;
45114;SDS011;30877;43.706;10.780;2023-07-29T09:26:57;4.57;;;1.67;;
45114;SDS011;30877;43.706;10.780;2023-07-29T09:29:27;3.00;;;1.60;;
45114;SDS011;30877;43.706;10.780;2023-07-29T09:32:07;6.30;;;1.85;;
45114;SDS011;30877;43.706;10.780;2023-07-29T09:34:46;3.08;;;1.90;;
45114;SDS011;30877;43.706;10.780;2023-07-29T09:37:15;5.20;;;1.75;;
45114;SDS011;30877;43.706;10.780;2023-07-29T09:39:46;5.07;;;1.95;;
45114;SDS011;30877;43.706;10.780;2023-07-29T09:42:18;2.70;;;1.80;;
45114;SDS011;30877;43.706;10.780;2023-07-29T09:44:48;2.45;;;1.88;;
45114;SDS011;30877;43.706;10.780;2023-07-29T09:47:20;3.22;;;1.80;;
45114;SDS011;30877;43.706;10.780;2023-07-29T09:49:50;4.03;;;2.05;;
45114;SDS011;30877;43.706;10.780;2023-07-29T09:52:19;3.65;;;1.85;;
45114;SDS011;30877;43.706;10.780;2023-07-29T09:54:51;3.10;;;1.75;;
45114;SDS011;30877;43.706;10.780;2023-07-29T09:57:19;3.53;;;2.10;;
45114;SDS011;30877;43.706;10.780;2023-07-29T09:59:55;5.18;;;2.20;;
45114;SDS011;30877;43.706;10.780;2023-07-29T10:02:25;2.60;;;1.63;;
45114;SDS011;30877;43.706;10.780;2023-07-29T10:04:57;3.67;;;1.95;;
45114;SDS011;30877;43.706;10.780;2023-07-29T10:07:27;2.28;;;1.75;;
45114;SDS011;30877;43.706;10.780;2023-07-29T10:09:58;4.85;;;2.08;;
45114;SDS011;30877;43.706;10.780;2023-07-29T10:12:30;3.15;;;1.95;;
45114;SDS011;30877;43.706;10.780;2023-07-29T10:15:00;4.82;;;1.83;;
45114;SDS011;30877;43.706;10.780;2023-07-29T10:17:30;4.20;;;2.35;;
45114;SDS011;30877;43.706;10.780;2023-07-29T10:20:01;2.95;;;2.08;;
45114;SDS011;30877;43.706;10.780;2023-07-29T10:22:33;4.13;;;2.03;;
45114;SDS011;30877;43.706;10.780;2023-07-29T10:25:07;6.18;;;2.45;;
45114;SDS011;30877;43.706;10.780;2023-07-29T10:27:42;4.72;;;1.70;;
45114;SDS011;30877;43.706;10.780;2023-07-29T10:30:14;4.70;;;2.45;;
45114;SDS011;30877;43.706;10.780;2023-07-29T10:32:43;4.32;;;2.58;;
45114;SDS011;30877;43.706;10.780;2023-07-29T10:35:13;4.68;;;2.20;;
45114;SDS011;30877;43.706;10.780;2023-07-29T10:37:42;3.63;;;1.92;;
45114;SDS011;30877;43.706;10.780;2023-07-29T10:40:14;4.95;;;1.73;;
45114;SDS011;30877;43.706;10.780;2023-07-29T10:45:36;5.63;;;2.78;;
45114;SDS011;30877;43.706;10.780;2023-07-29T10:48:06;5.57;;;2.20;;
45114;SDS011;30877;43.706;10.780;2023-07-29T10:50:38;4.72;;;2.20;;
45114;SDS011;30877;43.706;10.780;2023-07-29T10:53:07;3.13;;;2.03;;
45114;SDS011;30877;43.706;10.780;2023-07-29T10:55:37;4.32;;;2.22;;
45114;SDS011;30877;43.706;10.780;2023-07-29T10:58:06;4.20;;;2.17;;
45114;SDS011;30877;43.706;10.780;2023-07-29T11:00:45;6.32;;;2.28;;
45114;SDS011;30877;43.706;10.780;2023-07-29T11:03:14;3.22;;;2.33;;
45114;SDS011;30877;43.706;10.780;2023-07-29T11:05:46;4.25;;;2.00;;
45114;SDS011;30877;43.706;10.780;2023-07-29T11:08:20;3.42;;;2.35;;
45114;SDS011;30877;43.706;10.780;2023-07-29T11:11:01;4.50;;;2.28;;
45114;SDS011;30877;43.706;10.780;2023-07-29T11:13:32;4.82;;;2.60;;
45114;SDS011;30877;43.706;10.780;2023-07-29T11:16:01;3.95;;;2.00;;
45114;SDS011;30877;43.706;10.780;2023-07-29T11:18:31;3.78;;;2.00;;
45114;SDS011;30877;43.706;10.780;2023-07-29T11:21:01;4.03;;;2.22;;
45114;SDS011;30877;43.706;10.780;2023-07-29T11:23:31;6.78;;;2.15;;
45114;SDS011;30877;43.706;10.780;2023-07-29T11:26:02;3.67;;;2.40;;
45114;SDS011;30877;43.706;10.780;2023-07-29T11:28:37;3.58;;;2.30;;
45114;SDS011;30877;43.706;10.780;2023-07-29T11:31:07;4.40;;;2.33;;
45114;SDS011;30877;43.706;10.780;2023-07-29T11:33:38;3.42;;;2.30;;
45114;SDS011;30877;43.706;10.780;2023-07-29T11:36:06;3.20;;;1.88;;
45114;SDS011;30877;43.706;10.780;2023-07-29T11:38:45;5.43;;;2.33;;
45114;SDS011;30877;43.706;10.780;2023-07-29T11:41:18;5.85;;;2.38;;
45114;SDS011;30877;43.706;10.780;2023-07-29T11:43:49;5.45;;;2.30;;
45114;SDS011;30877;43.706;10.780;2023-07-29T11:46:20;3.03;;;1.95;;
45114;SDS011;30877;43.706;10.780;2023-07-29T11:48:50;3.30;;;2.05;;
45114;SDS011;30877;43.706;10.780;2023-07-29T11:51:21;3.75;;;2.15;;
45114;SDS011;30877;43.706;10.780;2023-07-29T11:53:49;7.18;;;2.83;;
45114;SDS011;30877;43.706;10.780;2023-07-29T11:56:20;9.30;;;3.80;;
45114;SDS011;30877;43.706;10.780;2023-07-29T11:58:49;8.18;;;2.65;;
45114;SDS011;30877;43.706;10.780;2023-07-29T12:01:17;9.05;;;2.83;;
45114;SDS011;30877;43.706;10.780;2023-07-29T12:03:46;5.25;;;2.47;;
45114;SDS011;30877;43.706;10.780;2023-07-29T12:06:14;3.50;;;2.08;;
45114;SDS011;30877;43.706;10.780;2023-07-29T12:08:43;12.27;;;2.55;;
45114;SDS011;30877;43.706;10.780;2023-07-29T12:11:12;4.00;;;2.35;;
45114;SDS011;30877;43.706;10.780;2023-07-29T12:13:43;3.25;;;2.10;;
45114;SDS011;30877;43.706;10.780;2023-07-29T12:16:15;4.57;;;2.40;;
45114;SDS011;30877;43.706;10.780;2023-07-29T12:18:47;5.40;;;2.20;;
45114;SDS011;30877;43.706;10.780;2023-07-29T12:21:18;4.50;;;2.40;;
45114;SDS011;30877;43.706;10.780;2023-07-29T12:23:47;5.25;;;3.70;;
45114;SDS011;30877;43.706;10.780;2023-07-29T12:26:17;4.45;;;2.50;;
45114;SDS011;30877;43.706;10.780;2023-07-29T12:28:47;6.60;;;2.47;;
45114;SDS011;30877;43.706;10.780;2023-07-29T12:31:15;3.28;;;2.20;;
45114;SDS011;30877;43.706;10.780;2023-07-29T12:33:44;3.70;;;2.08;;
45114;SDS011;30877;43.706;10.780;2023-07-29T12:36:12;3.83;;;2.15;;
45114;SDS011;30877;43.706;10.780;2023-07-29T12:38:42;5.03;;;2.20;;
45114;SDS011;30877;43.706;10.780;2023-07-29T12:41:11;3.63;;;2.00;;
45114;SDS011;30877;43.706;10.780;2023-07-29T12:43:40;5.35;;;1.98;;
45114;SDS011;30877;43.706;10.780;2023-07-29T12:46:10;5.20;;;2.22;;
45114;SDS011;30877;43.706;10.780;2023-07-29T12:48:39;3.30;;;2.35;;
45114;SDS011;30877;43.706;10.780;2023-07-29T12:51:07;2.60;;;1.98;;
45114;SDS011;30877;43.706;10.780;2023-07-29T12:53:35;3.80;;;2.03;;
45114;SDS011;30877;43.706;10.780;2023-07-29T12:56:04;3.45;;;1.92;;
45114;SDS011;30877;43.706;10.780;2023-07-29T12:58:33;5.10;;;2.40;;
45114;SDS011;30877;43.706;10.780;2023-07-29T13:01:02;3.97;;;2.38;;
45114;SDS011;30877;43.706;10.780;2023-07-29T13:03:32;3.05;;;1.75;;
45114;SDS011;30877;43.706;10.780;2023-07-29T13:06:01;3.03;;;2.10;;
45114;SDS011;30877;43.706;10.780;2023-07-29T13:08:30;4.78;;;2.13;;
45114;SDS011;30877;43.706;10.780;2023-07-29T13:10:58;2.22;;;1.58;;
45114;SDS011;30877;43.706;10.780;2023-07-29T13:13:27;3.08;;;1.85;;
45114;SDS011;30877;43.706;10.780;2023-07-29T13:15:55;3.28;;;2.20;;
45114;SDS011;30877;43.706;10.780;2023-07-29T13:18:28;4.38;;;1.88;;
45114;SDS011;30877;43.706;10.780;2023-07-29T13:20:58;4.65;;;2.03;;
45114;SDS011;30877;43.706;10.780;2023-07-29T13:23:27;3.88;;;2.10;;
45114;SDS011;30877;43.706;10.780;2023-07-29T13:25:57;4.00;;;2.10;;
45114;SDS011;30877;43.706;10.780;2023-07-29T13:28:25;3.20;;;2.40;;
45114;SDS011;30877;43.706;10.780;2023-07-29T13:30:54;5.00;;;2.42;;
45114;SDS011;30877;43.706;10.780;2023-07-29T13:33:22;4.80;;;1.88;;
45114;SDS011;30877;43.706;10.780;2023-07-29T13:35:51;3.55;;;1.90;;
45114;SDS011;30877;43.706;10.780;2023-07-29T13:38:24;3.75;;;2.03;;
45114;SDS011;30877;43.706;10.780;2023-07-29T13:40:52;5.78;;;2.78;;
45114;SDS011;30877;43.706;10.780;2023-07-29T13:43:21;3.45;;;1.70;;
45114;SDS011;30877;43.706;10.780;2023-07-29T13:45:50;4.60;;;1.88;;
45114;SDS011;30877;43.706;10.780;2023-07-29T13:48:20;3.85;;;1.63;;
45114;SDS011;30877;43.706;10.780;2023-07-29T13:50:49;3.28;;;1.70;;
45114;SDS011;30877;43.706;10.780;2023-07-29T13:53:18;3.65;;;2.25;;
45114;SDS011;30877;43.706;10.780;2023-07-29T13:55:49;3.30;;;1.63;;
45114;SDS011;30877;43.706;10.780;2023-07-29T13:58:19;4.10;;;1.83;;
45114;SDS011;30877;43.706;10.780;2023-07-29T14:00:48;3.83;;;1.90;;
45114;SDS011;30877;43.706;10.780;2023-07-29T14:03:18;3.50;;;1.92;;
45114;SDS011;30877;43.706;10.780;2023-07-29T14:05:49;2.95;;;1.85;;
45114;SDS011;30877;43.706;10.780;2023-07-29T14:08:19;3.50;;;1.67;;
45114;SDS011;30877;43.706;10.780;2023-07-29T14:10:52;4.85;;;1.98;;
45114;SDS011;30877;43.706;10.780;2023-07-29T14:13:37;3.63;;;2.17;;
45114;SDS011;30877;43.706;10.780;2023-07-29T14:16:07;2.70;;;1.80;;
45114;SDS011;30877;43.706;10.780;2023-07-29T14:18:36;5.38;;;2.00;;
45114;SDS011;30877;43.706;10.780;2023-07-29T14:21:05;4.10;;;1.88;;
45114;SDS011;30877;43.706;10.780;2023-07-29T14:23:33;6.15;;;2.03;;
45114;SDS011;30877;43.706;10.780;2023-07-29T14:26:04;3.53;;;1.80;;
45114;SDS011;30877;43.706;10.780;2023-07-29T14:28:32;4.55;;;2.00;;
45114;SDS011;30877;43.706;10.780;2023-07-29T14:31:00;4.30;;;1.88;;
45114;SDS011;30877;43.706;10.780;2023-07-29T14:33:29;6.38;;;2.33;;
45114;SDS011;30877;43.706;10.780;2023-07-29T14:35:57;2.60;;;1.75;;
45114;SDS011;30877;43.706;10.780;2023-07-29T14:38:25;2.58;;;1.50;;
45114;SDS011;30877;43.706;10.780;2023-07-29T14:40:54;2.78;;;1.55;;
45114;SDS011;30877;43.706;10.780;2023-07-29T14:43:26;7.90;;;1.92;;
45114;SDS011;30877;43.706;10.780;2023-07-29T14:45:55;3.85;;;1.77;;
45114;SDS011;30877;43.706;10.780;2023-07-29T14:48:24;2.53;;;1.83;;